createdAt,value
2022-10-13T00:00:52.016Z,29.08
2022-10-13T00:03:54.878Z,34.67
2022-10-13T00:06:58.444Z,32.50
2022-10-13T00:10:02.519Z,28.13
2022-10-13T00:13:06.476Z,29.95
2022-10-13T00:16:10.794Z,25.75
2022-10-13T00:19:15.174Z,25.02
2022-10-13T00:22:18.281Z,22.80
2022-10-13T00:25:21.715Z,25.38
2022-10-13T00:28:25.305Z,23.88
2022-10-13T00:31:30.799Z,23.98
2022-10-13T00:34:33.602Z,26.63
2022-10-13T00:37:36.503Z,23.50
2022-10-13T00:40:52.095Z,28.50
2022-10-13T00:43:57.375Z,24.45
2022-10-13T00:47:00.324Z,24.13
2022-10-13T00:50:04.900Z,24.83
2022-10-13T00:53:10.776Z,26.40
2022-10-13T00:56:16.457Z,27.10
2022-10-13T00:59:27.142Z,23.17
2022-10-13T01:02:35.103Z,24.88
2022-10-13T01:05:39.701Z,23.33
2022-10-13T01:08:42.618Z,25.63
2022-10-13T01:12:24.376Z,23.30
2022-10-13T01:16:01.726Z,23.92
2022-10-13T01:19:26.104Z,26.27
2022-10-13T01:22:28.729Z,28.02
2022-10-13T01:25:42.989Z,29.43
2022-10-13T01:28:45.748Z,27.15
2022-10-13T01:32:06.635Z,25.25
2022-10-13T01:35:30.816Z,24.38
2022-10-13T01:38:45.377Z,27.38
2022-10-13T01:41:52.840Z,26.63
2022-10-13T01:45:01.801Z,27.38
2022-10-13T01:48:07.542Z,26.25
2022-10-13T01:51:20.326Z,30.50
2022-10-13T01:54:23.057Z,31.33
2022-10-13T01:57:37.734Z,25.23
2022-10-13T02:00:48.254Z,26.38
2022-10-13T02:04:06.547Z,28.80
2022-10-13T02:07:42.063Z,27.15
2022-10-13T02:10:54.393Z,23.45
2022-10-13T02:14:08.212Z,30.23
2022-10-13T02:17:11.750Z,25.27
2022-10-13T02:20:18.379Z,26.33
2022-10-13T02:23:21.848Z,27.73
2022-10-13T02:26:25.881Z,27.20
2022-10-13T02:29:52.880Z,27.13
2022-10-13T02:32:56.840Z,27.40
2022-10-13T02:36:00.310Z,26.70
2022-10-13T02:39:03.102Z,32.05
2022-10-13T02:42:06.340Z,29.45
2022-10-13T02:45:10.158Z,29.60
2022-10-13T02:48:12.848Z,30.33
2022-10-13T02:51:15.604Z,26.42
2022-10-13T02:54:18.438Z,23.55
2022-10-13T02:57:21.230Z,25.15
2022-10-13T03:00:28.380Z,29.43
2022-10-13T03:03:31.080Z,29.08
2022-10-13T03:06:34.113Z,25.20
2022-10-13T03:09:37.070Z,23.45
2022-10-13T03:12:39.925Z,25.45
2022-10-13T03:15:42.664Z,26.43
2022-10-13T03:18:45.686Z,27.02
2022-10-13T03:21:48.541Z,29.73
2022-10-13T03:24:51.246Z,26.80
2022-10-13T03:27:56.163Z,25.08
2022-10-13T03:31:08.351Z,26.00
2022-10-13T03:34:12.862Z,27.13
2022-10-13T03:37:15.726Z,26.73
2022-10-13T03:40:19.330Z,28.52
2022-10-13T03:43:23.031Z,27.65
2022-10-13T03:46:28.876Z,25.30
2022-10-13T03:49:33.661Z,25.63
2022-10-13T03:52:36.536Z,25.52
2022-10-13T03:55:39.233Z,24.27
2022-10-13T03:58:43.014Z,27.23
2022-10-13T04:01:45.882Z,31.30
2022-10-13T04:04:48.697Z,33.03
2022-10-13T04:07:51.385Z,29.08
2022-10-13T04:11:06.409Z,32.08
2022-10-13T04:14:09.274Z,30.60
2022-10-13T04:17:12.349Z,27.40
2022-10-13T04:20:15.505Z,28.60
2022-10-13T04:23:18.883Z,26.95
2022-10-13T04:26:25.977Z,28.17
2022-10-13T04:29:29.154Z,27.77
2022-10-13T04:32:32.654Z,28.83
2022-10-13T04:35:42.415Z,27.75
2022-10-13T04:38:45.492Z,32.42
2022-10-13T04:41:48.216Z,27.20
2022-10-13T04:44:51.026Z,30.50
2022-10-13T04:47:57.222Z,27.97
2022-10-13T04:51:09.511Z,27.23
2022-10-13T04:54:12.367Z,27.10
2022-10-13T04:57:15.054Z,24.95
2022-10-13T05:00:18.134Z,30.70
2022-10-13T05:03:20.917Z,24.33
2022-10-13T05:06:26.144Z,25.98
2022-10-13T05:09:31.333Z,27.70
2022-10-13T05:12:34.356Z,25.33
2022-10-13T05:15:39.360Z,24.63
2022-10-13T05:18:42.964Z,25.07
2022-10-13T05:21:47.630Z,29.52
2022-10-13T05:24:50.454Z,24.83
2022-10-13T05:27:53.447Z,29.90
2022-10-13T05:30:56.489Z,24.35
2022-10-13T05:34:00.379Z,25.67
2022-10-13T05:37:13.843Z,30.42
2022-10-13T05:40:23.870Z,27.27
2022-10-13T05:43:36.899Z,25.20
2022-10-13T05:46:43.730Z,26.70
2022-10-13T05:49:54.089Z,30.27
2022-10-13T05:52:57.527Z,28.25
2022-10-13T05:56:06.525Z,98.35
2022-10-13T05:59:13.570Z,34.83
2022-10-13T06:02:25.092Z,24.10
2022-10-13T06:05:32.495Z,22.90
2022-10-13T06:08:40.300Z,25.27
2022-10-13T06:11:45.194Z,23.95
2022-10-13T06:14:49.005Z,20.38
2022-10-13T06:17:51.910Z,23.70
2022-10-13T06:20:54.903Z,26.10
2022-10-13T06:23:57.972Z,23.33
2022-10-13T06:27:03.041Z,24.02
2022-10-13T06:30:08.311Z,20.55
2022-10-13T06:33:13.021Z,20.52
2022-10-13T06:36:19.021Z,21.30
2022-10-13T06:39:21.835Z,25.00
2022-10-13T06:42:25.008Z,21.33
2022-10-13T06:45:44.199Z,21.77
2022-10-13T06:48:58.425Z,24.13
2022-10-13T06:52:02.969Z,25.93
2022-10-13T06:55:09.180Z,25.60
2022-10-13T06:58:12.845Z,22.08
2022-10-13T07:01:16.049Z,22.23
2022-10-13T07:04:18.724Z,22.35
2022-10-13T07:07:24.278Z,21.23
2022-10-13T07:10:30.360Z,18.15
2022-10-13T07:13:36.361Z,18.45
2022-10-13T07:16:40.761Z,21.23
2022-10-13T07:19:43.554Z,26.52
2022-10-13T07:22:55.417Z,22.27
2022-10-13T07:26:02.057Z,23.70
2022-10-13T07:29:05.166Z,19.63
2022-10-13T07:32:08.039Z,20.25
2022-10-13T07:38:31.671Z,18.17
2022-10-13T07:41:34.889Z,19.48
2022-10-13T07:44:44.040Z,15.02
2022-10-13T07:47:47.728Z,21.13
2022-10-13T07:50:50.968Z,17.05
2022-10-13T07:53:54.489Z,15.37
2022-10-13T07:57:00.607Z,19.98
2022-10-13T08:00:06.169Z,15.80
2022-10-13T08:03:17.523Z,15.55
2022-10-13T08:06:21.935Z,16.25
2022-10-13T08:09:27.626Z,16.30
2022-10-13T08:12:31.313Z,17.88
2022-10-13T08:15:35.176Z,18.70
2022-10-13T08:18:38.014Z,14.48
2022-10-13T08:22:01.787Z,15.82
2022-10-13T08:25:07.355Z,20.50
2022-10-13T08:28:23.964Z,17.25
2022-10-13T08:31:28.988Z,17.48
2022-10-13T08:34:39.955Z,17.08
2022-10-13T08:37:46.120Z,15.45
2022-10-13T08:40:58.306Z,13.37
2022-10-13T08:48:20.373Z,17.50
2022-10-13T08:51:23.295Z,15.80
2022-10-13T08:54:26.663Z,16.08
2022-10-13T08:57:29.451Z,20.43
2022-10-13T09:00:32.279Z,14.20
2022-10-13T09:03:56.325Z,15.82
2022-10-13T09:07:10.428Z,17.75
2022-10-13T09:10:15.574Z,16.58
2022-10-13T09:13:21.430Z,17.03
2022-10-13T09:16:39.375Z,13.98
2022-10-13T09:19:57.207Z,16.38
2022-10-13T09:23:28.498Z,16.33
2022-10-13T09:26:36.643Z,18.23
2022-10-13T09:29:40.132Z,18.03
2022-10-13T09:32:44.734Z,15.88
2022-10-13T09:36:11.564Z,18.15
2022-10-13T09:39:16.525Z,15.65
2022-10-13T09:42:27.726Z,16.65
2022-10-13T09:45:33.329Z,14.57
2022-10-13T09:48:38.226Z,14.25
2022-10-13T09:51:45.131Z,14.88
2022-10-13T09:55:00.850Z,13.50
2022-10-13T09:58:15.316Z,17.90
2022-10-13T10:01:28.869Z,16.87
2022-10-13T10:04:38.731Z,14.95
2022-10-13T10:07:41.728Z,15.32
2022-10-13T10:10:45.016Z,19.00
2022-10-13T10:13:47.721Z,12.48
2022-10-13T10:17:14.315Z,17.07
2022-10-13T10:20:49.489Z,12.35
2022-10-13T10:24:07.740Z,14.10
2022-10-13T10:30:23.511Z,13.20
2022-10-13T10:33:45.054Z,14.90
2022-10-13T10:36:55.625Z,14.38
2022-10-13T10:40:17.110Z,13.13
2022-10-13T10:43:42.372Z,13.80
2022-10-13T10:46:49.946Z,12.85
2022-10-13T10:50:02.310Z,11.77
2022-10-13T10:53:27.166Z,12.82
2022-10-13T10:56:37.428Z,11.70
2022-10-13T11:04:50.395Z,15.02
2022-10-13T11:07:53.183Z,13.57
2022-10-13T11:11:32.295Z,14.05
2022-10-13T11:14:40.535Z,14.07
2022-10-13T11:17:43.420Z,12.77
2022-10-13T11:20:58.327Z,17.10
2022-10-13T11:24:02.190Z,12.40
2022-10-13T11:27:08.333Z,12.93
2022-10-13T11:30:47.551Z,12.60
2022-10-13T11:33:56.316Z,12.02
2022-10-13T11:37:01.985Z,11.43
2022-10-13T11:40:25.455Z,14.30
2022-10-13T11:43:53.201Z,18.20
2022-10-13T11:47:17.677Z,13.90
2022-10-13T11:50:33.439Z,12.43
2022-10-13T11:53:48.682Z,12.48
2022-10-13T11:56:54.293Z,15.03
2022-10-13T11:59:57.163Z,14.40
2022-10-13T12:03:05.376Z,13.07
2022-10-13T12:06:22.794Z,14.57
2022-10-13T12:09:26.874Z,10.50
2022-10-13T12:12:29.702Z,12.50
2022-10-13T12:15:36.428Z,11.55
2022-10-13T12:18:41.137Z,12.93
2022-10-13T12:21:55.850Z,14.23
2022-10-13T12:25:01.510Z,13.02
2022-10-13T12:28:04.513Z,11.80
2022-10-13T12:31:19.664Z,14.20
2022-10-13T12:34:27.682Z,12.02
2022-10-13T12:37:36.833Z,12.57
2022-10-13T12:40:40.037Z,15.40
2022-10-13T12:43:43.506Z,17.17
2022-10-13T12:46:55.575Z,16.88
2022-10-13T12:50:44.898Z,15.27
2022-10-13T12:53:48.685Z,15.50
2022-10-13T12:57:01.575Z,11.70
2022-10-13T13:00:28.736Z,15.13
2022-10-13T13:03:31.657Z,17.98
2022-10-13T13:06:37.235Z,14.10
2022-10-13T13:09:42.891Z,15.20
2022-10-13T13:12:48.283Z,13.43
2022-10-13T13:15:51.178Z,12.70
2022-10-13T13:18:54.042Z,13.02
2022-10-13T13:21:56.778Z,14.57
2022-10-13T13:24:59.507Z,16.30
2022-10-13T13:28:06.921Z,15.55
2022-10-13T13:31:12.289Z,14.07
2022-10-13T13:34:15.168Z,15.20
2022-10-13T13:37:27.757Z,13.65
2022-10-13T13:40:31.918Z,16.17
2022-10-13T13:43:37.867Z,17.25
2022-10-13T13:46:42.105Z,17.73
2022-10-13T13:49:45.133Z,16.10
2022-10-13T13:52:48.404Z,14.50
2022-10-13T13:55:52.266Z,14.55
2022-10-13T13:58:55.124Z,15.57
2022-10-13T14:01:57.894Z,15.17
2022-10-13T14:05:02.305Z,13.32
2022-10-13T14:08:05.702Z,13.73
2022-10-13T14:11:08.769Z,15.15
2022-10-13T14:14:11.510Z,13.02
2022-10-13T14:17:14.300Z,14.10
2022-10-13T14:20:17.123Z,15.05
2022-10-13T14:23:20.470Z,14.20
2022-10-13T14:26:24.064Z,17.85
2022-10-13T14:29:26.861Z,16.67
2022-10-13T14:32:29.631Z,17.37
2022-10-13T14:35:32.463Z,16.67
2022-10-13T14:38:35.315Z,17.60
2022-10-13T14:41:39.131Z,16.15
2022-10-13T14:44:41.913Z,15.57
2022-10-13T14:47:44.790Z,18.07
2022-10-13T14:50:47.817Z,15.93
2022-10-13T14:53:51.024Z,23.77
2022-10-13T14:56:53.818Z,16.60
2022-10-13T15:00:01.643Z,20.42
2022-10-13T15:03:05.554Z,17.63
2022-10-13T15:06:16.277Z,17.15
2022-10-13T15:09:18.995Z,21.70
2022-10-13T15:12:22.123Z,22.83
2022-10-13T15:15:25.442Z,23.48
2022-10-13T15:18:30.931Z,19.27
2022-10-13T15:21:34.034Z,23.25
2022-10-13T15:24:37.119Z,23.15
2022-10-13T15:27:42.021Z,24.63
2022-10-13T15:30:45.962Z,25.05
2022-10-13T15:33:52.827Z,27.70
2022-10-13T15:36:56.484Z,31.33
2022-10-13T15:39:59.345Z,32.03
2022-10-13T15:43:02.377Z,38.08
2022-10-13T15:46:12.427Z,28.95
2022-10-13T15:49:15.164Z,31.30
2022-10-13T15:52:18.555Z,32.90
2022-10-13T15:55:21.573Z,36.42
2022-10-13T15:58:24.467Z,34.88
2022-10-13T16:01:28.705Z,28.63
2022-10-13T16:04:37.169Z,27.43
2022-10-13T16:07:41.623Z,34.30
2022-10-13T16:10:44.571Z,25.30
2022-10-13T16:13:52.612Z,25.33
2022-10-13T16:20:47.135Z,24.13
2022-10-13T16:23:49.934Z,77.55
2022-10-13T16:26:52.693Z,49.53
2022-10-13T16:29:55.458Z,51.83
2022-10-13T16:32:58.401Z,45.47
2022-10-13T16:36:13.559Z,44.50
2022-10-13T16:39:16.953Z,42.50
2022-10-13T16:42:20.020Z,44.13
2022-10-13T16:45:41.334Z,39.00
2022-10-13T16:48:46.698Z,34.65
2022-10-13T16:51:49.735Z,27.47
2022-10-13T16:54:52.671Z,28.63
2022-10-13T16:57:55.490Z,32.00
2022-10-13T17:01:08.907Z,29.75
2022-10-13T17:04:11.783Z,33.88
2022-10-13T17:07:14.694Z,32.27
2022-10-13T17:10:17.699Z,42.42
2022-10-13T17:13:20.492Z,38.63
2022-10-13T17:16:23.657Z,40.72
2022-10-13T17:19:26.632Z,42.47
2022-10-13T17:22:29.622Z,49.57
2022-10-13T17:25:34.720Z,48.38
2022-10-13T17:28:39.253Z,46.45
2022-10-13T17:31:42.948Z,44.92
2022-10-13T17:34:45.941Z,50.33
2022-10-13T17:37:50.241Z,49.00
2022-10-13T17:40:58.886Z,45.83
2022-10-13T17:44:02.529Z,48.45
2022-10-13T17:47:05.348Z,52.17
2022-10-13T17:50:08.572Z,45.90
2022-10-13T17:53:11.759Z,39.80
2022-10-13T17:56:18.512Z,40.50
2022-10-13T17:59:21.442Z,33.25
2022-10-13T18:02:24.362Z,40.15
2022-10-13T18:05:27.322Z,45.05
2022-10-13T18:08:32.957Z,36.30
2022-10-13T18:11:36.372Z,36.47
2022-10-13T18:14:39.151Z,39.50
2022-10-13T18:17:41.974Z,38.40
2022-10-13T18:20:44.694Z,35.92
2022-10-13T18:23:47.804Z,30.37
2022-10-13T18:26:50.782Z,31.25
2022-10-13T18:29:53.527Z,26.50
2022-10-13T18:32:57.589Z,34.28
2022-10-13T18:36:00.882Z,27.75
2022-10-13T18:39:07.479Z,27.50
2022-10-13T18:42:10.237Z,25.13
2022-10-13T18:45:13.015Z,29.27
2022-10-13T18:48:15.799Z,28.35
2022-10-13T18:51:20.267Z,32.30
2022-10-13T18:54:23.123Z,27.53
2022-10-13T18:57:25.787Z,27.95
2022-10-13T19:00:28.732Z,29.50
2022-10-13T19:03:33.798Z,26.98
2022-10-13T19:06:37.824Z,33.40
2022-10-13T19:09:40.596Z,32.17
2022-10-13T19:12:43.413Z,27.77
2022-10-13T19:15:46.583Z,29.20
2022-10-13T19:18:50.683Z,28.80
2022-10-13T19:21:53.589Z,26.67
2022-10-13T19:24:56.397Z,28.20
2022-10-13T19:28:00.992Z,26.58
2022-10-13T19:31:30.968Z,28.13
2022-10-13T19:34:34.931Z,33.08
2022-10-13T19:37:39.002Z,29.88
2022-10-13T19:40:49.644Z,31.13
2022-10-13T19:43:52.587Z,29.80
2022-10-13T19:46:57.865Z,25.58
2022-10-13T19:50:01.766Z,25.50
2022-10-13T19:53:04.880Z,31.15
2022-10-13T19:56:08.931Z,35.60
2022-10-13T19:59:11.909Z,28.23
2022-10-13T20:02:14.930Z,30.65
2022-10-13T20:05:20.871Z,30.00
2022-10-13T20:08:26.172Z,30.00
2022-10-13T20:11:28.894Z,29.50
2022-10-13T20:14:31.788Z,26.58
2022-10-13T20:17:34.497Z,24.23
2022-10-13T20:20:37.281Z,28.73
2022-10-13T20:23:41.035Z,25.70
2022-10-13T20:26:43.735Z,31.27
2022-10-13T20:29:46.771Z,27.73
2022-10-13T20:32:49.518Z,27.90
2022-10-13T20:35:52.503Z,22.77
2022-10-13T20:38:55.624Z,24.63
2022-10-13T20:41:58.333Z,24.07
2022-10-13T20:45:01.104Z,22.20
2022-10-13T20:48:03.916Z,25.83
2022-10-13T20:51:10.663Z,24.33
2022-10-13T20:54:14.979Z,23.85
2022-10-13T20:57:17.697Z,24.37
2022-10-13T21:00:22.706Z,31.10
2022-10-13T21:03:25.908Z,28.30
2022-10-13T21:06:29.843Z,29.08
2022-10-13T21:09:36.594Z,31.63
2022-10-13T21:12:39.327Z,30.07
2022-10-13T21:15:44.226Z,30.45
2022-10-13T21:18:49.185Z,33.17
2022-10-13T21:21:52.111Z,40.53
2022-10-13T21:24:54.974Z,42.63
2022-10-13T21:27:58.903Z,36.00
2022-10-13T21:31:03.240Z,33.88
2022-10-13T21:34:06.182Z,29.40
2022-10-13T21:37:09.107Z,33.20
2022-10-13T21:40:11.937Z,28.10
2022-10-13T21:43:14.757Z,26.73
2022-10-13T21:46:32.103Z,28.70
2022-10-13T21:49:34.874Z,28.40
2022-10-13T21:52:38.317Z,25.13
2022-10-13T21:55:41.179Z,25.35
2022-10-13T21:58:44.264Z,25.13
2022-10-13T22:01:47.064Z,23.95
2022-10-13T22:04:49.781Z,25.50
2022-10-13T22:07:53.223Z,28.08
2022-10-13T22:10:59.037Z,23.65
2022-10-13T22:14:02.004Z,31.40
2022-10-13T22:17:06.859Z,22.33
2022-10-13T22:20:09.687Z,24.15
2022-10-13T22:23:12.405Z,24.73
2022-10-13T22:26:18.799Z,20.08
2022-10-13T22:29:23.707Z,25.47
2022-10-13T22:32:26.380Z,25.75
2022-10-13T22:35:29.130Z,25.38
2022-10-13T22:38:31.938Z,26.02
2022-10-13T22:41:37.794Z,29.92
2022-10-13T22:44:40.673Z,26.23
2022-10-13T22:47:43.409Z,26.25
2022-10-13T22:50:46.696Z,22.38
2022-10-13T22:53:49.993Z,27.80
2022-10-13T22:56:53.063Z,26.70
2022-10-13T22:59:55.741Z,28.67
2022-10-13T23:02:58.400Z,25.58
2022-10-13T23:06:01.109Z,23.23
2022-10-13T23:09:06.536Z,26.73
2022-10-13T23:12:09.310Z,26.33
2022-10-13T23:15:12.187Z,26.00
2022-10-13T23:18:15.221Z,25.70
2022-10-13T23:21:20.431Z,26.45
2022-10-13T23:24:23.119Z,26.10
2022-10-13T23:27:25.983Z,23.85
2022-10-13T23:30:28.825Z,23.23
2022-10-13T23:33:31.721Z,26.77
2022-10-13T23:36:34.586Z,22.35
2022-10-13T23:39:37.499Z,24.50
2022-10-13T23:42:40.234Z,23.67
2022-10-13T23:45:42.989Z,22.47
2022-10-13T23:48:46.182Z,22.83
2022-10-13T23:51:52.224Z,21.90
2022-10-13T23:54:55.001Z,26.15
2022-10-13T23:57:58.890Z,25.15
